Página principal
Imagens de satélite Previsões 10 diasClimaMeteorologia maritima Ciclones Descargas eléctricas AeroportosFAQ Notícias Sobre
Tempo : Europa África América do Norte América do Sul Ásia Austrália-Oceania Outros
Línguas Contacto

Cambridge, Inglaterra

latitude: 52-12N, longitude: 000-11E, altura: 15 m


METAR: EGSC 251750Z 25010KT 9999 FEW047 16/07 Q1004
TAF: EGSC 251448Z 2515/2519 22012KT 9999 SCT025 TEMPO 2515/2518 23015G25KT

Hora: 19:10 (18:10 UTC)

Observação actual do tempo

O boletim foi feito há 20 minutos, às 17:50 UTC
Vento 10 kt de oes-sudoeste
Temperatura 16°C
Humidade 55%
Pressão 1004 hPa
Visibilidade 10 km ou mais
Poucas nuvensa uma altura de 4700 ft

Mudar unidades

Previsão

O boletim foi feito há 3 horas e 22 minutos, às 14:48 UTC
Previsão válida de 25 às 15 UTC a 25 às 19 UTC
Vento 12 kt de sudoeste
Visibilidade 10 km ou mais
Nuvens dispersasa uma altura de 2500 ft
Temporariamente
de 25 às 15 UTC a 25 às 18 UTC
Vento 15 kt de sudoeste com rajadas de 25 kt
As informações contidas neste sítio estão sujeitas a uma declaração de exoneração de responsabilidade
Tempo : Europa África América do Norte América do Sul Ásia Austrália-Oceania Outros
Imagens de satélite Previsões 10 diasClimaMeteorologia maritima Ciclones Descargas eléctricas AeroportosFAQ Línguas Contacto Notícias Sobre